createdAt,value
2023-03-24T00:00:04.564Z,992.73
2023-03-24T00:01:04.548Z,992.73
2023-03-24T00:02:04.544Z,992.68
2023-03-24T00:03:04.541Z,992.71
2023-03-24T00:04:04.506Z,992.69
2023-03-24T00:05:04.445Z,992.67
2023-03-24T00:06:04.429Z,992.62
2023-03-24T00:07:04.390Z,992.62
2023-03-24T00:08:04.749Z,992.64
2023-03-24T00:09:04.347Z,992.65
2023-03-24T00:10:04.321Z,992.60
2023-03-24T00:11:04.301Z,992.62
2023-03-24T00:12:04.271Z,992.61
2023-03-24T00:13:04.263Z,992.56
2023-03-24T00:14:04.223Z,992.61
2023-03-24T00:15:04.199Z,992.52
2023-03-24T00:16:04.190Z,992.50
2023-03-24T00:17:04.148Z,992.51
2023-03-24T00:18:04.177Z,992.52
2023-03-24T00:19:04.098Z,992.49
2023-03-24T00:20:04.091Z,992.44
2023-03-24T00:21:04.049Z,992.44
2023-03-24T00:22:04.033Z,992.40
2023-03-24T00:23:04.009Z,992.41
2023-03-24T00:24:03.988Z,992.40
2023-03-24T00:25:03.951Z,992.42
2023-03-24T00:26:03.926Z,992.41
2023-03-24T00:27:03.899Z,992.34
2023-03-24T00:28:03.878Z,992.37
2023-03-24T00:29:03.866Z,992.42
2023-03-24T00:30:03.834Z,992.33
2023-03-24T00:31:03.823Z,992.33
2023-03-24T00:32:03.780Z,992.37
2023-03-24T00:33:03.773Z,992.34
2023-03-24T00:34:03.732Z,992.31
2023-03-24T00:35:03.706Z,992.27
2023-03-24T00:36:03.736Z,992.18
2023-03-24T00:37:03.658Z,992.14
2023-03-24T00:38:03.638Z,992.18
2023-03-24T00:39:04.024Z,992.15
2023-03-24T00:40:03.585Z,992.15
2023-03-24T00:41:03.559Z,992.14
2023-03-24T00:42:03.547Z,992.18
2023-03-24T00:43:03.515Z,992.16
2023-03-24T00:44:03.545Z,992.11
2023-03-24T00:45:03.464Z,992.11
2023-03-24T00:46:03.442Z,992.02
2023-03-24T00:47:03.483Z,991.99
2023-03-24T00:48:03.456Z,991.97
2023-03-24T00:49:03.373Z,992.05
2023-03-24T00:50:03.343Z,992.02
2023-03-24T00:51:03.318Z,992.05
2023-03-24T00:52:03.311Z,991.96
2023-03-24T00:53:03.273Z,991.91
2023-03-24T00:54:03.255Z,991.86
2023-03-24T00:55:03.215Z,992.01
2023-03-24T00:56:03.193Z,992.00
2023-03-24T00:57:03.265Z,992.00
2023-03-24T00:58:03.149Z,992.01
2023-03-24T00:59:03.164Z,991.98
2023-03-24T01:00:03.095Z,991.92
2023-03-24T01:01:03.097Z,991.76
2023-03-24T01:02:03.060Z,991.75
2023-03-24T01:03:03.069Z,991.75
2023-03-24T01:04:02.997Z,991.77
2023-03-24T01:05:02.977Z,991.79
2023-03-24T01:06:04.357Z,991.82
2023-03-24T01:07:02.921Z,991.79
2023-03-24T01:08:02.921Z,991.77
2023-03-24T01:09:02.877Z,991.72
2023-03-24T01:10:02.848Z,991.75
2023-03-24T01:11:02.822Z,991.72
2023-03-24T01:12:02.798Z,991.70
2023-03-24T01:13:02.774Z,991.73
2023-03-24T01:14:02.766Z,991.74
2023-03-24T01:15:02.729Z,991.67
2023-03-24T01:16:02.770Z,991.61
2023-03-24T01:17:02.675Z,991.52
2023-03-24T01:18:02.713Z,991.49
2023-03-24T01:19:02.625Z,991.50
2023-03-24T01:20:02.599Z,991.47
2023-03-24T01:21:02.580Z,991.57
2023-03-24T01:22:02.581Z,991.62
2023-03-24T01:23:02.524Z,991.62
2023-03-24T01:24:02.519Z,991.56
2023-03-24T01:25:02.477Z,991.62
2023-03-24T01:26:02.450Z,991.58
2023-03-24T01:27:02.430Z,991.56
2023-03-24T01:28:02.405Z,991.42
2023-03-24T01:29:02.382Z,991.34
2023-03-24T01:30:02.350Z,991.39
2023-03-24T01:31:02.329Z,991.32
2023-03-24T01:32:02.354Z,991.31
2023-03-24T01:33:02.324Z,991.40
2023-03-24T01:34:02.258Z,991.34
2023-03-24T01:35:02.231Z,991.35
2023-03-24T01:36:02.235Z,991.30
2023-03-24T01:37:02.192Z,991.28
2023-03-24T01:38:02.156Z,991.28
2023-03-24T01:39:02.176Z,991.22
2023-03-24T01:40:02.136Z,991.20
2023-03-24T01:41:02.088Z,991.13
2023-03-24T01:42:02.069Z,991.23
2023-03-24T01:43:02.039Z,991.15
2023-03-24T01:44:02.016Z,991.12
2023-03-24T01:45:01.983Z,991.17
2023-03-24T01:46:02.009Z,991.12
2023-03-24T01:47:01.939Z,991.05
2023-03-24T01:48:01.957Z,991.15
2023-03-24T01:49:01.888Z,991.12
2023-03-24T01:50:01.873Z,991.18
2023-03-24T01:51:01.847Z,991.21
2023-03-24T01:52:01.818Z,991.08
2023-03-24T01:53:01.789Z,991.10
2023-03-24T01:54:01.775Z,990.99
2023-03-24T01:55:01.762Z,991.04
2023-03-24T01:56:01.744Z,991.02
2023-03-24T01:57:01.731Z,991.03
2023-03-24T01:58:01.688Z,991.07
2023-03-24T01:59:01.659Z,990.95
2023-03-24T02:00:01.639Z,990.98
2023-03-24T02:01:01.625Z,990.93
2023-03-24T02:02:01.568Z,990.91
2023-03-24T02:03:01.565Z,990.86
2023-03-24T02:04:01.585Z,990.83
2023-03-24T02:05:01.497Z,990.89
2023-03-24T02:06:01.477Z,990.88
2023-03-24T02:07:01.450Z,990.87
2023-03-24T02:08:01.421Z,990.82
2023-03-24T02:09:01.472Z,990.77
2023-03-24T02:10:01.373Z,990.81
2023-03-24T02:11:01.354Z,990.74
2023-03-24T02:12:01.408Z,990.72
2023-03-24T02:13:01.306Z,990.68
2023-03-24T02:14:01.276Z,990.65
2023-03-24T02:15:01.251Z,990.63
2023-03-24T02:16:01.296Z,990.62
2023-03-24T02:17:01.204Z,990.64
2023-03-24T02:18:01.238Z,990.63
2023-03-24T02:19:01.163Z,990.52
2023-03-24T02:20:01.134Z,990.59
2023-03-24T02:21:01.113Z,990.53
2023-03-24T02:22:01.086Z,990.51
2023-03-24T02:23:01.068Z,990.54
2023-03-24T02:24:01.035Z,990.53
2023-03-24T02:25:01.010Z,990.48
2023-03-24T02:26:00.986Z,990.48
2023-03-24T02:27:00.964Z,990.48
2023-03-24T02:28:00.963Z,990.48
2023-03-24T02:29:00.924Z,990.54
2023-03-24T02:30:00.926Z,990.48
2023-03-24T02:31:00.867Z,990.48
2023-03-24T02:32:00.889Z,990.44
2023-03-24T02:33:00.936Z,990.46
2023-03-24T02:34:00.803Z,990.39
2023-03-24T02:35:00.776Z,990.37
2023-03-24T02:36:00.756Z,990.37
2023-03-24T02:37:00.718Z,990.30
2023-03-24T02:38:00.713Z,990.33
2023-03-24T02:39:00.675Z,990.23
2023-03-24T02:40:00.671Z,990.30
2023-03-24T02:41:00.628Z,990.28
2023-03-24T02:42:00.601Z,990.23
2023-03-24T02:43:00.577Z,990.20
2023-03-24T02:44:00.570Z,990.17
2023-03-24T02:45:00.523Z,990.15
2023-03-24T02:46:00.546Z,990.13
2023-03-24T02:47:00.474Z,990.15
2023-03-24T02:48:00.597Z,990.14
2023-03-24T02:49:00.426Z,990.16
2023-03-24T02:50:00.426Z,990.12
2023-03-24T02:51:00.487Z,990.15
2023-03-24T02:52:00.349Z,990.06
2023-03-24T02:53:00.330Z,990.11
2023-03-24T02:54:00.307Z,990.05
2023-03-24T02:55:00.279Z,990.03
2023-03-24T02:56:00.265Z,990.05
2023-03-24T02:57:00.311Z,990.09
2023-03-24T02:58:00.207Z,990.04
2023-03-24T02:59:00.184Z,989.96
2023-03-24T03:00:00.173Z,989.97
2023-03-24T03:01:00.193Z,989.92
2023-03-24T03:02:00.114Z,989.99
2023-03-24T03:03:00.195Z,989.96
2023-03-24T03:04:00.157Z,989.92
2023-03-24T03:05:00.045Z,989.90
2023-03-24T03:06:00.009Z,989.94
2023-03-24T03:07:00.028Z,989.97
2023-03-24T03:07:59.960Z,989.95
2023-03-24T03:08:59.938Z,989.96
2023-03-24T03:09:59.909Z,989.93
2023-03-24T03:10:59.886Z,989.92
2023-03-24T03:11:59.860Z,989.95
2023-03-24T03:12:59.838Z,989.96
2023-03-24T03:13:59.816Z,989.95
2023-03-24T03:14:59.790Z,989.88
2023-03-24T03:15:59.814Z,989.95
2023-03-24T03:16:59.761Z,989.95
2023-03-24T03:17:59.734Z,989.94
2023-03-24T03:18:59.703Z,989.87
2023-03-24T03:19:59.667Z,989.87
2023-03-24T03:20:59.652Z,989.77
2023-03-24T03:21:59.618Z,989.86
2023-03-24T03:22:59.594Z,989.89
2023-03-24T03:23:59.571Z,989.75
2023-03-24T03:24:59.547Z,989.86
2023-03-24T03:25:59.524Z,989.76
2023-03-24T03:26:59.501Z,989.76
2023-03-24T03:27:59.477Z,989.75
2023-03-24T03:28:59.460Z,989.74
2023-03-24T03:29:59.428Z,989.73
2023-03-24T03:30:59.416Z,989.73
2023-03-24T03:31:59.391Z,989.64
2023-03-24T03:32:59.384Z,989.62
2023-03-24T03:33:59.332Z,989.65
2023-03-24T03:34:59.313Z,989.74
2023-03-24T03:35:59.307Z,989.68
2023-03-24T03:36:59.258Z,989.69
2023-03-24T03:37:59.233Z,989.69
2023-03-24T03:38:59.213Z,989.65
2023-03-24T03:39:59.184Z,989.64
2023-03-24T03:40:59.167Z,989.69
2023-03-24T03:41:59.144Z,989.68
2023-03-24T03:42:59.114Z,989.62
2023-03-24T03:43:59.093Z,989.60
2023-03-24T03:44:59.070Z,989.63
2023-03-24T03:45:59.062Z,989.55
2023-03-24T03:46:59.017Z,989.53
2023-03-24T03:47:59.043Z,989.54
2023-03-24T03:48:58.970Z,989.60
2023-03-24T03:49:58.963Z,989.56
2023-03-24T03:51:12.391Z,989.50
2023-03-24T03:51:58.912Z,989.54
2023-03-24T03:52:58.880Z,989.54
2023-03-24T03:53:58.849Z,989.58
2023-03-24T03:54:58.833Z,989.58
2023-03-24T03:55:58.797Z,989.57
2023-03-24T03:56:58.778Z,989.60
2023-03-24T03:57:58.750Z,989.53
2023-03-24T03:58:58.725Z,989.57
2023-03-24T03:59:58.706Z,989.55
2023-03-24T04:00:58.679Z,989.49
2023-03-24T04:01:58.729Z,989.47
2023-03-24T04:02:58.712Z,989.53
2023-03-24T04:03:58.660Z,989.48
2023-03-24T04:05:05.933Z,989.55
2023-03-24T04:05:58.553Z,989.52
2023-03-24T04:06:58.531Z,989.45
2023-03-24T04:07:58.505Z,989.55
2023-03-24T04:08:58.484Z,989.47
2023-03-24T04:09:58.456Z,989.54
2023-03-24T04:10:58.443Z,989.50
2023-03-24T04:11:58.410Z,989.52
2023-03-24T04:12:58.392Z,989.46
2023-03-24T04:13:58.363Z,989.46
2023-03-24T04:14:58.349Z,989.58
2023-03-24T04:15:58.358Z,989.53
2023-03-24T04:16:58.302Z,989.55
2023-03-24T04:17:58.338Z,989.56
2023-03-24T04:18:58.250Z,989.50
2023-03-24T04:19:58.242Z,989.50
2023-03-24T04:20:58.235Z,989.48
2023-03-24T04:21:58.175Z,989.56
2023-03-24T04:22:58.146Z,989.53
2023-03-24T04:23:58.121Z,989.53
2023-03-24T04:24:58.100Z,989.56
2023-03-24T04:25:58.075Z,989.59
2023-03-24T04:26:58.055Z,989.66
2023-03-24T04:27:58.026Z,989.56
2023-03-24T04:28:58.005Z,989.69
2023-03-24T04:29:57.979Z,989.58
2023-03-24T04:30:57.981Z,989.59
2023-03-24T04:31:57.936Z,989.61
2023-03-24T04:32:57.959Z,989.64
2023-03-24T04:33:57.891Z,989.54
2023-03-24T04:34:57.860Z,989.64
2023-03-24T04:35:57.879Z,989.68
2023-03-24T04:36:57.808Z,989.64
2023-03-24T04:37:57.783Z,989.62
2023-03-24T04:38:57.768Z,989.64
2023-03-24T04:39:57.736Z,989.70
2023-03-24T04:40:57.714Z,989.72
2023-03-24T04:41:57.687Z,989.68
2023-03-24T04:42:57.670Z,989.62
2023-03-24T04:43:57.660Z,989.62
2023-03-24T04:44:57.636Z,989.70
2023-03-24T04:45:57.796Z,989.66
2023-03-24T04:46:57.577Z,989.72
2023-03-24T04:47:57.620Z,989.71
2023-03-24T04:48:57.526Z,989.78
2023-03-24T04:49:57.495Z,989.83
2023-03-24T04:50:57.493Z,989.85
2023-03-24T04:51:57.492Z,989.83
2023-03-24T04:52:57.452Z,989.90
2023-03-24T04:53:57.423Z,989.88
2023-03-24T04:54:57.377Z,990.02
2023-03-24T04:55:57.357Z,990.16
2023-03-24T04:56:57.357Z,990.16
2023-03-24T04:57:57.304Z,990.19
2023-03-24T04:58:57.286Z,990.28
2023-03-24T04:59:57.259Z,990.31
2023-03-24T05:00:57.263Z,990.46
2023-03-24T05:01:57.208Z,990.46
2023-03-24T05:02:57.202Z,990.45
2023-03-24T05:03:57.180Z,990.46
2023-03-24T05:04:57.141Z,990.48
2023-03-24T05:05:57.114Z,990.51
2023-03-24T05:06:57.089Z,990.62
2023-03-24T05:07:57.084Z,990.54
2023-03-24T05:08:57.040Z,990.65
2023-03-24T05:09:57.019Z,990.78
2023-03-24T05:10:56.994Z,990.87
2023-03-24T05:11:56.968Z,990.85
2023-03-24T05:12:56.952Z,990.83
2023-03-24T05:13:56.920Z,990.88
2023-03-24T05:14:56.896Z,990.94
2023-03-24T05:15:56.865Z,990.89
2023-03-24T05:16:56.845Z,990.93
2023-03-24T05:17:56.886Z,990.93
2023-03-24T05:18:56.799Z,990.99
2023-03-24T05:19:56.778Z,990.97
2023-03-24T05:20:56.748Z,991.10
2023-03-24T05:21:56.720Z,990.97
2023-03-24T05:22:56.698Z,991.11
2023-03-24T05:23:56.706Z,991.10
2023-03-24T05:24:56.650Z,991.16
2023-03-24T05:25:56.627Z,991.15
2023-03-24T05:26:56.608Z,991.28
2023-03-24T05:27:56.574Z,991.29
2023-03-24T05:28:56.586Z,991.28
2023-03-24T05:29:56.521Z,991.28
2023-03-24T05:30:56.538Z,991.27
2023-03-24T05:31:56.474Z,991.37
2023-03-24T05:32:56.499Z,991.29
2023-03-24T05:33:56.425Z,991.37
2023-03-24T05:34:56.405Z,991.40
2023-03-24T05:35:56.394Z,991.37
2023-03-24T05:36:56.352Z,991.47
2023-03-24T05:37:56.323Z,991.43
2023-03-24T05:38:56.315Z,991.58
2023-03-24T05:39:56.293Z,991.61
2023-03-24T05:40:56.254Z,991.58
2023-03-24T05:41:56.229Z,991.60
2023-03-24T05:42:56.209Z,991.59
2023-03-24T05:43:56.178Z,991.65
2023-03-24T05:44:56.160Z,991.68
2023-03-24T05:45:56.172Z,991.76
2023-03-24T05:46:56.117Z,991.77
2023-03-24T05:47:56.154Z,991.78
2023-03-24T05:48:56.057Z,991.72
2023-03-24T05:49:56.040Z,991.79
2023-03-24T05:50:56.009Z,991.81
2023-03-24T05:51:55.988Z,991.89
2023-03-24T05:52:55.960Z,991.92
2023-03-24T05:53:55.934Z,991.88
2023-03-24T05:54:55.911Z,992.01
2023-03-24T05:55:55.904Z,991.98
2023-03-24T05:56:55.875Z,991.91
2023-03-24T05:57:55.835Z,992.06
2023-03-24T05:58:55.821Z,992.04
2023-03-24T05:59:55.788Z,992.09
2023-03-24T06:00:55.760Z,992.19
2023-03-24T06:01:55.733Z,992.17
2023-03-24T06:02:55.858Z,992.22
2023-03-24T06:03:55.799Z,992.17
2023-03-24T06:04:55.662Z,992.23
2023-03-24T06:05:55.636Z,992.28
2023-03-24T06:06:55.612Z,992.17
2023-03-24T06:07:55.588Z,992.25
2023-03-24T06:08:55.563Z,992.26
2023-03-24T06:09:55.537Z,992.32
2023-03-24T06:10:55.514Z,992.40
2023-03-24T06:11:55.504Z,992.39
2023-03-24T06:12:55.465Z,992.40
2023-03-24T06:13:55.437Z,992.34
2023-03-24T06:14:55.410Z,992.30
2023-03-24T06:15:55.453Z,992.41
2023-03-24T06:16:55.364Z,992.37
2023-03-24T06:17:55.418Z,992.46
2023-03-24T06:18:55.316Z,992.50
2023-03-24T06:19:55.333Z,992.48
2023-03-24T06:20:55.263Z,992.53
2023-03-24T06:21:55.238Z,992.51
2023-03-24T06:22:55.210Z,992.56
2023-03-24T06:23:55.188Z,992.54
2023-03-24T06:24:55.159Z,992.57
2023-03-24T06:25:55.142Z,992.58
2023-03-24T06:26:55.111Z,992.61
2023-03-24T06:27:55.102Z,992.63
2023-03-24T06:28:55.063Z,992.59
2023-03-24T06:29:55.040Z,992.65
2023-03-24T06:30:55.066Z,992.68
2023-03-24T06:31:54.987Z,992.66
2023-03-24T06:32:55.034Z,992.67
2023-03-24T06:33:54.949Z,992.68
2023-03-24T06:34:54.916Z,992.68
2023-03-24T06:35:54.936Z,992.69
2023-03-24T06:36:54.860Z,992.76
2023-03-24T06:37:54.890Z,992.75
2023-03-24T06:38:54.818Z,992.75
2023-03-24T06:39:54.790Z,992.68
2023-03-24T06:40:54.766Z,992.74
2023-03-24T06:41:54.738Z,992.71
2023-03-24T06:42:54.716Z,992.77
2023-03-24T06:43:54.740Z,992.77
2023-03-24T06:44:54.664Z,992.85
2023-03-24T06:45:54.649Z,992.89
2023-03-24T06:46:54.682Z,992.89
2023-03-24T06:47:54.647Z,992.83
2023-03-24T06:48:54.564Z,992.84
2023-03-24T06:49:54.568Z,992.82
2023-03-24T06:50:54.510Z,992.84
2023-03-24T06:51:54.487Z,992.79
2023-03-24T06:52:54.459Z,992.75
2023-03-24T06:53:54.439Z,992.78
2023-03-24T06:54:54.410Z,992.83
2023-03-24T06:55:54.388Z,992.87
2023-03-24T06:56:54.420Z,992.91
2023-03-24T06:57:54.352Z,992.88
2023-03-24T06:58:54.352Z,992.90
2023-03-24T06:59:54.367Z,992.86
2023-03-24T07:00:54.289Z,992.93
2023-03-24T07:01:54.277Z,992.96
2023-03-24T07:02:54.275Z,992.94
2023-03-24T07:03:54.237Z,993.00
2023-03-24T07:04:54.232Z,992.88
2023-03-24T07:05:54.206Z,992.97
2023-03-24T07:07:10.812Z,992.96
2023-03-24T07:08:29.749Z,993.00
2023-03-24T07:08:54.064Z,992.94
2023-03-24T07:09:54.040Z,993.05
2023-03-24T07:10:54.016Z,993.06
2023-03-24T07:11:53.994Z,993.05
2023-03-24T07:12:53.967Z,993.03
2023-03-24T07:13:53.947Z,993.10
2023-03-24T07:14:53.925Z,993.06
2023-03-24T07:15:54.045Z,993.10
2023-03-24T07:16:53.868Z,993.11
2023-03-24T07:17:53.864Z,993.20
2023-03-24T07:18:53.821Z,993.19
2023-03-24T07:19:53.796Z,993.18
2023-03-24T07:20:53.776Z,993.19
2023-03-24T07:21:53.747Z,993.20
2023-03-24T07:22:53.720Z,993.27
2023-03-24T07:23:53.706Z,993.23
2023-03-24T07:24:54.518Z,993.20
2023-03-24T07:25:53.647Z,993.15
2023-03-24T07:26:53.622Z,993.20
2023-03-24T07:27:53.596Z,993.24
2023-03-24T07:28:53.584Z,993.25
2023-03-24T07:29:53.556Z,993.31
2023-03-24T07:30:55.342Z,993.29
2023-03-24T07:31:53.591Z,993.26
2023-03-24T07:32:53.592Z,993.29
2023-03-24T07:33:53.451Z,993.26
2023-03-24T07:34:53.423Z,993.27
2023-03-24T07:35:53.445Z,993.30
2023-03-24T07:36:53.371Z,993.27
2023-03-24T07:37:53.413Z,993.18
2023-03-24T07:38:53.340Z,993.19
2023-03-24T07:39:53.302Z,993.14
2023-03-24T07:40:53.337Z,993.16
2023-03-24T07:41:53.256Z,993.19
2023-03-24T07:42:53.227Z,993.17
2023-03-24T07:43:53.209Z,993.22
2023-03-24T07:44:53.191Z,993.20
2023-03-24T07:45:53.195Z,993.21
2023-03-24T07:46:53.134Z,993.24
2023-03-24T07:47:53.154Z,993.17
2023-03-24T07:48:53.078Z,993.13
2023-03-24T07:49:53.058Z,993.16
2023-03-24T07:50:53.044Z,993.12
2023-03-24T07:51:53.019Z,993.14
2023-03-24T07:52:52.990Z,993.12
2023-03-24T07:53:52.959Z,993.15
2023-03-24T07:54:52.937Z,993.16
2023-03-24T07:55:53.034Z,993.25
2023-03-24T07:56:52.981Z,993.15
2023-03-24T07:57:52.868Z,993.28
2023-03-24T07:58:52.851Z,993.24
2023-03-24T07:59:52.817Z,993.34
2023-03-24T08:00:52.787Z,993.36
2023-03-24T08:01:56.669Z,993.35
2023-03-24T08:02:52.929Z,993.30
2023-03-24T08:03:53.022Z,993.32
2023-03-24T08:04:52.888Z,993.41
2023-03-24T08:05:52.833Z,993.42
2023-03-24T08:06:52.639Z,993.44
2023-03-24T08:07:52.643Z,993.49
2023-03-24T08:08:52.597Z,993.50
2023-03-24T08:09:52.570Z,993.47
2023-03-24T08:10:52.548Z,993.47
2023-03-24T08:11:52.539Z,993.56
2023-03-24T08:12:52.555Z,993.56
2023-03-24T08:13:52.472Z,993.61
2023-03-24T08:14:52.453Z,993.58
2023-03-24T08:15:52.429Z,993.62
2023-03-24T08:16:52.408Z,993.57
2023-03-24T08:17:52.424Z,993.61
2023-03-24T08:18:52.449Z,993.61
2023-03-24T08:20:00.197Z,993.58
2023-03-24T08:20:52.297Z,993.62
2023-03-24T08:21:52.273Z,993.66
2023-03-24T08:22:52.247Z,993.66
2023-03-24T08:23:52.221Z,993.64
2023-03-24T08:24:52.212Z,993.67
2023-03-24T08:25:52.176Z,993.66
2023-03-24T08:26:52.148Z,993.64
2023-03-24T08:27:52.143Z,993.70
2023-03-24T08:28:52.100Z,993.64
2023-03-24T08:29:52.081Z,993.63
2023-03-24T08:30:52.078Z,993.70
2023-03-24T08:31:52.029Z,993.77
2023-03-24T08:32:52.081Z,993.71
2023-03-24T08:33:51.982Z,993.68
2023-03-24T08:34:51.958Z,993.59
2023-03-24T08:35:52.177Z,993.66
2023-03-24T08:36:51.904Z,993.68
2023-03-24T08:37:51.882Z,993.77
2023-03-24T08:38:51.862Z,993.76
2023-03-24T08:39:51.834Z,993.80
2023-03-24T08:40:51.808Z,993.87
2023-03-24T08:41:51.784Z,993.85
2023-03-24T08:42:51.760Z,993.89
2023-03-24T08:43:51.736Z,993.90
2023-03-24T08:44:51.708Z,993.88
2023-03-24T08:45:51.734Z,993.91
2023-03-24T08:46:51.744Z,994.00
2023-03-24T08:47:51.657Z,994.01
2023-03-24T08:48:51.611Z,994.00
2023-03-24T08:49:51.586Z,993.97
2023-03-24T08:50:51.560Z,994.01
2023-03-24T08:51:51.561Z,994.12
2023-03-24T08:52:51.527Z,994.06
2023-03-24T08:53:51.492Z,994.11
2023-03-24T08:54:51.462Z,994.05
2023-03-24T08:55:51.442Z,994.05
2023-03-24T08:56:51.452Z,994.07
2023-03-24T08:57:51.395Z,994.15
2023-03-24T08:58:51.395Z,994.12
2023-03-24T08:59:51.655Z,994.10
2023-03-24T09:00:51.316Z,994.08
2023-03-24T09:01:51.348Z,994.04
2023-03-24T09:02:51.306Z,994.04
2023-03-24T09:03:51.253Z,994.07
2023-03-24T09:04:51.261Z,994.21
2023-03-24T09:05:51.251Z,994.07
2023-03-24T09:06:51.179Z,994.08
2023-03-24T09:07:51.189Z,994.05
2023-03-24T09:08:51.124Z,994.03
2023-03-24T09:09:51.096Z,994.03
2023-03-24T09:10:51.099Z,994.02
2023-03-24T09:11:51.053Z,994.10
2023-03-24T09:12:51.019Z,994.11
2023-03-24T09:13:50.998Z,994.10
2023-03-24T09:14:51.023Z,994.15
2023-03-24T09:15:51.341Z,994.11
2023-03-24T09:16:50.931Z,994.12
2023-03-24T09:17:50.943Z,994.14
2023-03-24T09:18:50.882Z,994.09
2023-03-24T09:19:50.859Z,994.09
2023-03-24T09:20:50.953Z,994.12
2023-03-24T09:21:50.808Z,994.09
2023-03-24T09:22:50.783Z,994.07
2023-03-24T09:23:50.775Z,994.13
2023-03-24T09:24:50.732Z,994.13
2023-03-24T09:25:50.896Z,994.13
2023-03-24T09:26:50.697Z,994.09
2023-03-24T09:27:50.659Z,994.11
2023-03-24T09:28:50.635Z,994.15
2023-03-24T09:29:50.617Z,993.97
2023-03-24T09:30:50.851Z,994.13
2023-03-24T09:31:50.601Z,994.13
2023-03-24T09:32:50.594Z,994.10
2023-03-24T09:33:50.518Z,994.12
2023-03-24T09:34:50.505Z,994.15
2023-03-24T09:35:50.481Z,994.17
2023-03-24T09:36:50.453Z,994.16
2023-03-24T09:37:50.420Z,994.15
2023-03-24T09:38:50.399Z,994.16
2023-03-24T09:39:50.391Z,994.16
2023-03-24T09:40:50.351Z,994.17
2023-03-24T09:41:50.326Z,994.22
2023-03-24T09:42:50.366Z,994.21
2023-03-24T09:43:50.279Z,994.29
2023-03-24T09:44:50.635Z,994.26
2023-03-24T09:45:50.406Z,994.26
2023-03-24T09:46:50.356Z,994.28
2023-03-24T09:47:50.249Z,994.19
2023-03-24T09:48:50.159Z,994.27
2023-03-24T09:49:50.135Z,994.25
2023-03-24T09:50:50.109Z,994.29
2023-03-24T09:51:50.093Z,994.33
2023-03-24T09:52:50.069Z,994.30
2023-03-24T09:53:50.048Z,994.31
2023-03-24T09:54:50.106Z,994.28
2023-03-24T09:55:50.170Z,994.26
2023-03-24T09:56:51.789Z,994.30
2023-03-24T09:57:49.949Z,994.32
2023-03-24T09:58:49.930Z,994.39
2023-03-24T09:59:49.904Z,994.37
2023-03-24T10:00:50.094Z,994.35
2023-03-24T10:01:49.855Z,994.36
2023-03-24T10:02:51.915Z,994.34
2023-03-24T10:03:49.859Z,994.32
2023-03-24T10:04:49.786Z,994.31
2023-03-24T10:05:50.002Z,994.38
2023-03-24T10:06:49.734Z,994.41
2023-03-24T10:07:49.712Z,994.32
2023-03-24T10:08:49.694Z,994.30
2023-03-24T10:09:49.669Z,994.29
2023-03-24T10:10:49.837Z,994.36
2023-03-24T10:11:49.637Z,994.35
2023-03-24T10:12:49.619Z,994.28
2023-03-24T10:13:49.571Z,994.35
2023-03-24T10:14:49.553Z,994.34
2023-03-24T10:15:49.532Z,994.39
2023-03-24T10:16:49.679Z,994.41
2023-03-24T10:17:49.547Z,994.37
2023-03-24T10:18:49.457Z,994.42
2023-03-24T10:19:49.515Z,994.46
2023-03-24T10:20:49.407Z,994.47
2023-03-24T10:21:49.716Z,994.39
2023-03-24T10:22:49.364Z,994.36
2023-03-24T10:23:49.344Z,994.36
2023-03-24T10:24:49.314Z,994.39
2023-03-24T10:25:49.434Z,994.39
2023-03-24T10:26:49.265Z,994.45
2023-03-24T10:27:49.268Z,994.45
2023-03-24T10:28:49.221Z,994.41
2023-03-24T10:29:49.222Z,994.48
2023-03-24T10:30:49.581Z,994.44
2023-03-24T10:31:49.186Z,994.51
2023-03-24T10:32:49.190Z,994.54
2023-03-24T10:33:49.102Z,994.52
2023-03-24T10:34:49.082Z,994.58
2023-03-24T10:35:49.228Z,994.48
2023-03-24T10:36:49.042Z,994.51
2023-03-24T10:37:49.009Z,994.48
2023-03-24T10:38:48.998Z,994.54
2023-03-24T10:39:48.967Z,994.55
2023-03-24T10:40:48.951Z,994.56
2023-03-24T10:41:48.929Z,994.58
2023-03-24T10:42:48.905Z,994.60
2023-03-24T10:43:48.913Z,994.60
2023-03-24T10:44:48.855Z,994.69
2023-03-24T10:45:49.089Z,994.77
2023-03-24T10:46:48.814Z,994.76
2023-03-24T10:47:48.820Z,994.69
2023-03-24T10:48:48.768Z,994.69
2023-03-24T10:49:48.738Z,994.70
2023-03-24T10:50:48.723Z,994.72
2023-03-24T10:51:48.735Z,994.75
2023-03-24T10:52:48.828Z,994.86
2023-03-24T10:53:48.680Z,994.84
2023-03-24T10:54:48.628Z,994.79
2023-03-24T10:55:49.103Z,994.74
2023-03-24T10:56:48.642Z,994.78
2023-03-24T10:57:48.559Z,994.79
2023-03-24T10:58:48.536Z,994.77
2023-03-24T10:59:48.534Z,994.86
2023-03-24T11:00:48.514Z,994.80
2023-03-24T11:01:48.585Z,994.92
2023-03-24T11:02:48.506Z,994.80
2023-03-24T11:03:48.418Z,994.86
2023-03-24T11:04:48.410Z,994.83
2023-03-24T11:05:48.519Z,994.83
2023-03-24T11:06:48.350Z,994.93
2023-03-24T11:07:48.324Z,994.90
2023-03-24T11:08:48.310Z,994.90
2023-03-24T11:09:48.281Z,994.97
2023-03-24T11:10:48.255Z,994.95
2023-03-24T11:11:48.301Z,994.95
2023-03-24T11:12:48.210Z,994.92
2023-03-24T11:13:48.186Z,994.95
2023-03-24T11:14:48.175Z,994.96
2023-03-24T11:15:48.351Z,994.96
2023-03-24T11:16:48.171Z,994.96
2023-03-24T11:17:48.133Z,995.05
2023-03-24T11:18:48.073Z,995.03
2023-03-24T11:19:48.047Z,994.96
2023-03-24T11:20:48.032Z,995.01
2023-03-24T11:21:48.003Z,995.05
2023-03-24T11:22:47.979Z,995.09
2023-03-24T11:23:47.955Z,995.11
2023-03-24T11:24:47.932Z,995.06
2023-03-24T11:25:48.176Z,995.09
2023-03-24T11:26:47.891Z,995.09
2023-03-24T11:27:47.872Z,995.09
2023-03-24T11:28:47.840Z,995.06
2023-03-24T11:29:47.817Z,995.08
2023-03-24T11:30:47.808Z,995.10
2023-03-24T11:31:47.802Z,995.09
2023-03-24T11:32:47.783Z,995.06
2023-03-24T11:33:47.721Z,995.05
2023-03-24T11:34:47.703Z,995.07
2023-03-24T11:36:47.812Z,995.00
2023-03-24T11:37:47.640Z,995.00
2023-03-24T11:38:47.624Z,995.01
2023-03-24T11:39:47.595Z,995.00
2023-03-24T11:40:47.563Z,994.99
2023-03-24T11:41:47.538Z,994.91
2023-03-24T11:42:47.515Z,994.94
2023-03-24T11:43:47.492Z,994.90
2023-03-24T11:44:47.471Z,994.98
2023-03-24T11:45:47.663Z,995.00
2023-03-24T11:46:47.529Z,994.97
2023-03-24T11:47:47.444Z,995.00
2023-03-24T11:48:47.379Z,995.04
2023-03-24T11:49:47.353Z,995.03
2023-03-24T11:50:47.340Z,995.04
2023-03-24T11:51:47.314Z,995.04
2023-03-24T11:52:47.284Z,995.06
2023-03-24T11:53:47.265Z,995.04
2023-03-24T11:54:47.244Z,995.06
2023-03-24T11:55:47.342Z,995.09
2023-03-24T11:56:47.231Z,995.06
2023-03-24T11:57:47.185Z,995.10
2023-03-24T11:58:47.153Z,995.08
2023-03-24T11:59:47.159Z,995.09
2023-03-24T12:00:47.184Z,995.14
2023-03-24T12:01:47.102Z,995.11
2023-03-24T12:02:47.123Z,995.17
2023-03-24T12:03:47.172Z,995.10
2023-03-24T12:04:47.133Z,995.10
2023-03-24T12:05:49.564Z,995.18
2023-03-24T12:06:47.026Z,995.14
2023-03-24T12:07:46.974Z,995.16
2023-03-24T12:08:47.007Z,995.14
2023-03-24T12:09:46.952Z,995.06
2023-03-24T12:10:46.931Z,995.15
2023-03-24T12:11:46.911Z,995.06
2023-03-24T12:12:46.864Z,995.05
2023-03-24T12:13:46.862Z,994.97
2023-03-24T12:14:46.808Z,994.98
2023-03-24T12:15:47.093Z,994.98
2023-03-24T12:16:46.875Z,994.95
2023-03-24T12:17:46.808Z,994.97
2023-03-24T12:18:46.763Z,994.99
2023-03-24T12:19:46.716Z,994.89
2023-03-24T12:20:46.645Z,995.09
2023-03-24T12:21:46.743Z,995.08
2023-03-24T12:22:46.666Z,995.06
2023-03-24T12:23:46.689Z,995.01
2023-03-24T12:24:46.561Z,995.00
2023-03-24T12:25:46.609Z,995.01
2023-03-24T12:26:46.551Z,995.13
2023-03-24T12:27:46.546Z,995.07
2023-03-24T12:28:46.494Z,995.04